Thomson Dream — 9HA2381 — position and weather

sailwx.info

Track history (hours):
 
Tides and Currents Weather Stations Pressure Air Temp Water Temp Dewpoint Dewpoint Depression Visibility Wind Speed Wind Dir Waves Ship Positions

Thomson Dream

Last reported at 2017-Sep-25 16:56 UTC. Time now 2017-Sep-26 05:56 UTC.
Position N 37°40' E 025°37'.

Length 243 m; draft 7.6 m.

Type: Ship. MMSI: 248480975.

Date/timePositionNaut miles runAvg speedWind from/ knotsBaromVisibWave heightAir tempDewpointWater temp
2017-Sep-25 16:56N 37°40' E 025°37'410.4
2017-Sep-25 16:31N 37°37' E 025°32'510.4
2017-Sep-25 16:01N 37°35' E 025°26'610.6
2017-Sep-25 15:26N 37°32' E 025°20'4 8.2
2017-Sep-25 15:00N 37°28' E 025°18'1 2.4
2017-Sep-25 14:30N 37°28' E 025°19'0 0.0
2017-Sep-25 14:00N 37°28' E 025°19'0 0.0
2017-Sep-25 13:30N 37°28' E 025°19'0 0.0
2017-Sep-25 13:00N 37°28' E 025°19'0 0.0
2017-Sep-25 12:30N 37°28' E 025°19'0 0.0
2017-Sep-25 12:00N 37°28' E 025°19'0 0.0
2017-Sep-25 11:30N 37°28' E 025°19'0 0.0
2017-Sep-25 11:00N 37°28' E 025°19'0 0.0
2017-Sep-25 10:30N 37°28' E 025°19'0 0.0
2017-Sep-25 10:00N 37°28' E 025°19'0 0.0
2017-Sep-25 09:30N 37°28' E 025°19'0 0.0
2017-Sep-25 09:00N 37°28' E 025°19'0 0.0
2017-Sep-25 08:30N 37°28' E 025°19'0 0.0
2017-Sep-25 07:57N 37°28' E 025°19'0 0.0
2017-Sep-25 07:30N 37°28' E 025°19'0 0.0
2017-Sep-25 07:00N 37°28' E 025°19'0 0.0
2017-Sep-25 06:30N 37°28' E 025°19'0 0.0
2017-Sep-25 06:00N 37°28' E 025°19'0 0.0
2017-Sep-25 05:30N 37°28' E 025°19'0 0.0
2017-Sep-25 05:00N 37°28' E 025°19'0 0.0
2017-Sep-25 04:31N 37°28' E 025°19'1 2.5
2017-Sep-25 04:00N 37°27' E 025°18'714.5
2017-Sep-25 03:31N 37°26' E 025°09'816.1
2017-Sep-25 03:01N 37°21' E 025°01'816.2
2017-Sep-25 02:31N 37°14' E 024°57'611.1
2017-Sep-25 02:00N 37°08' E 024°55'  
2017-Sep-18 23:46N 44°04' E 014°05'519.0
2017-Sep-18 23:31N 44°08' E 014°01'918.6
2017-Sep-18 23:01N 44°15' E 013°54'918.3
2017-Sep-18 22:30N 44°23' E 013°46'917.3
2017-Sep-18 22:01N 44°30' E 013°40'612.6
2017-Sep-18 21:30N 44°36' E 013°35'612.3
2017-Sep-18 21:00N 44°41' E 013°30'612.2
2017-Sep-18 20:30N 44°46' E 013°26'612.2
2017-Sep-18 20:00N 44°51' E 013°21'713.8
2017-Sep-18 19:30N 44°57' E 013°16'917.1
2017-Sep-18 19:00N 45°04' E 013°10'917.6
2017-Sep-18 18:30N 45°12' E 013°03'917.2
2017-Sep-18 18:00N 45°19' E 012°57'816.8
2017-Sep-18 17:30N 45°22' E 012°46'917.5
2017-Sep-18 17:00N 45°22' E 012°33'713.9
2017-Sep-18 16:30N 45°26' E 012°25'3 6.0
2017-Sep-18 16:01N 45°26' E 012°21'2 3.1
2017-Sep-18 15:30N 45°26' E 012°18'0 0.0
2017-Sep-18 15:00N 45°26' E 012°18'0 0.0
2017-Sep-18 14:30N 45°26' E 012°18'0 0.0
2017-Sep-18 14:00N 45°26' E 012°18'0 0.0
2017-Sep-18 13:30N 45°26' E 012°18'0 0.0
2017-Sep-18 13:00N 45°26' E 012°18'0 0.0
2017-Sep-18 12:28N 45°26' E 012°18'0 0.0
2017-Sep-18 11:58N 45°26' E 012°18'0 0.0
2017-Sep-18 11:28N 45°26' E 012°18'0 0.0
2017-Sep-18 10:58N 45°26' E 012°18'0 0.0
2017-Sep-18 10:28N 45°26' E 012°18'0 0.0
2017-Sep-18 09:58N 45°26' E 012°18'0 0.0
2017-Sep-18 09:30N 45°26' E 012°18'0 0.0
2017-Sep-18 08:58N 45°26' E 012°18'0 0.0
2017-Sep-18 08:30N 45°26' E 012°18'0 0.0
2017-Sep-18 08:00N 45°26' E 012°18'0 0.0
2017-Sep-18 07:30N 45°26' E 012°18'0 0.0
2017-Sep-18 07:00N 45°26' E 012°18'0 0.0
2017-Sep-18 06:27N 45°26' E 012°18'0 0.0
2017-Sep-18 06:00N 45°26' E 012°18'0 0.0
2017-Sep-18 05:30N 45°26' E 012°18'0 0.8
2017-Sep-18 05:00N 45°26' E 012°19'2 4.9
2017-Sep-18 04:30N 45°25' E 012°22'3 7.0
2017-Sep-18 04:00N 45°25' E 012°27'611.2
2017-Sep-18 03:30N 45°22' E 012°33'913.2
2017-Sep-18 02:48N 45°18' E 012°46'413.2
2017-Sep-18 02:30N 45°17' E 012°51'1 1.6
2017-Sep-18 02:00N 45°17' E 012°52'0 0.4
2017-Sep-18 01:30N 45°17' E 012°52'0 0.5
2017-Sep-18 01:00N 45°17' E 012°52'1 1.0
2017-Sep-18 00:30N 45°18' E 012°51'1 1.2
2017-Sep-18 00:00N 45°18' E 012°51'1 1.3
2017-Sep-17 23:30N 45°19' E 012°50'1 1.4
2017-Sep-17 23:00N 45°19' E 012°49'1 1.5
2017-Sep-17 22:30N 45°20' E 012°49'1 1.7
2017-Sep-17 22:00N 45°20' E 012°48'2 3.0
2017-Sep-17 21:30N 45°22' E 012°49'510.1
2017-Sep-17 21:00N 45°25' E 012°55'510.0
2017-Sep-17 20:30N 45°27' E 013°01'4 8.2
2017-Sep-17 20:00N 45°29' E 013°06'510.5
2017-Sep-17 19:30N 45°32' E 013°13'610.9
2017-Sep-17 19:00N 45°34' E 013°20'510.9
2017-Sep-17 18:30N 45°36' E 013°27'510.9
2017-Sep-17 18:00N 45°38' E 013°34'510.5
2017-Sep-17 17:30N 45°35' E 013°41'3 5.1
2017-Sep-17 16:58N 45°33' E 013°44'0 0.0
2017-Sep-17 16:27N 45°33' E 013°44'0 0.0
2017-Sep-17 16:00N 45°33' E 013°44'0 0.0
2017-Sep-17 15:29N 45°33' E 013°44'0 0.0
2017-Sep-17 14:56N 45°33' E 013°44'0 0.0
2017-Sep-17 14:29N 45°33' E 013°44'0 0.0
2017-Sep-17 13:59N 45°33' E 013°44'0 0.0
2017-Sep-17 13:29N 45°33' E 013°44'0 0.0
2017-Sep-17 12:59N 45°33' E 013°44'0 0.0
2017-Sep-17 12:29N 45°33' E 013°44'0 0.0
2017-Sep-17 11:59N 45°33' E 013°44'0 0.0
2017-Sep-17 11:28N 45°33' E 013°44'0 0.0
2017-Sep-17 10:58N 45°33' E 013°44'0 0.0
2017-Sep-17 10:30N 45°33' E 013°44'0 0.0
2017-Sep-17 09:58N 45°33' E 013°44'0 0.0
2017-Sep-17 09:23N 45°33' E 013°44'0 0.0
2017-Sep-17 08:59N 45°33' E 013°44'0 0.0
2017-Sep-17 08:29N 45°33' E 013°44'0 0.0
2017-Sep-17 07:59N 45°33' E 013°44'0 0.0
2017-Sep-17 07:29N 45°33' E 013°44'0 0.0
2017-Sep-17 06:56N 45°33' E 013°44'0 0.0
2017-Sep-17 06:29N 45°33' E 013°44'0 0.0
2017-Sep-17 05:59N 45°33' E 013°44'0 0.9
2017-Sep-17 05:31N 45°33' E 013°43'1 2.4
2017-Sep-17 05:01N 45°34' E 013°42'613.0
2017-Sep-17 04:31N 45°35' E 013°32'816.0
2017-Sep-17 04:01N 45°30' E 013°23'816.6
2017-Sep-17 03:31N 45°25' E 013°13'816.6
2017-Sep-17 03:01N 45°17' E 013°14'917.6
2017-Sep-17 02:31N 45°09' E 013°16'816.0
2017-Sep-17 02:01N 45°01' E 013°21'611.7
2017-Sep-17 01:30N 44°56' E 013°24'612.3
2017-Sep-17 01:01N 44°51' E 013°29'612.1
2017-Sep-17 00:30N 44°46' E 013°34'611.9
2017-Sep-17 00:01N 44°41' E 013°38'611.8
2017-Sep-16 23:31N 44°36' E 013°43'611.8
2017-Sep-16 23:01N 44°31' E 013°47'611.8
2017-Sep-16 22:31N 44°26' E 013°52'611.7
2017-Sep-16 22:00N 44°21' E 013°56'611.3
2017-Sep-16 21:30N 44°16' E 014°00'9414.7
2017-Sep-16 15:08N 42°58' E 015°13'18216.2
2017-Sep-16 03:52N 41°18' E 018°37'1216.9
2017-Sep-16 03:08N 41°06' E 018°42'216.8
2017-Sep-16 03:00N 41°04' E 018°43'916.8
2017-Sep-16 02:27N 40°55' E 018°48'2716.8
2017-Sep-16 00:51N 40°29' E 018°57'1416.9
2017-Sep-16 00:02N 40°17' E 019°06'117.4
2017-Sep-16 00:00N 40°17' E 019°07'917.8
2017-Sep-15 23:29N 40°12' E 019°17'1518.3
2017-Sep-15 22:40N 40°04' E 019°33'  
Track history (hours):
 
Tides and Currents Weather Stations Pressure Air Temp Water Temp Dewpoint Dewpoint Depression Visibility Wind Speed Wind Dir Waves Ship Positions

Thomson Dream

Last reported at 2017-Sep-25 16:56 UTC. Time now 2017-Sep-26 05:56 UTC.
Position N 37°40' E 025°37'.

Length 243 m; draft 7.6 m.

Type: Ship. MMSI: 248480975.

Date/timePositionNaut miles runAvg speedWind from/ knotsBaromVisibWave heightAir tempDewpointWater temp
2017-Sep-25 16:56N 37°40' E 025°37'410.4
2017-Sep-25 16:31N 37°37' E 025°32'510.4
2017-Sep-25 16:01N 37°35' E 025°26'610.6
2017-Sep-25 15:26N 37°32' E 025°20'4 8.2
2017-Sep-25 15:00N 37°28' E 025°18'1 2.4
2017-Sep-25 14:30N 37°28' E 025°19'0 0.0
2017-Sep-25 14:00N 37°28' E 025°19'0 0.0
2017-Sep-25 13:30N 37°28' E 025°19'0 0.0
2017-Sep-25 13:00N 37°28' E 025°19'0 0.0
2017-Sep-25 12:30N 37°28' E 025°19'0 0.0
2017-Sep-25 12:00N 37°28' E 025°19'0 0.0
2017-Sep-25 11:30N 37°28' E 025°19'0 0.0
2017-Sep-25 11:00N 37°28' E 025°19'0 0.0
2017-Sep-25 10:30N 37°28' E 025°19'0 0.0
2017-Sep-25 10:00N 37°28' E 025°19'0 0.0
2017-Sep-25 09:30N 37°28' E 025°19'0 0.0
2017-Sep-25 09:00N 37°28' E 025°19'0 0.0
2017-Sep-25 08:30N 37°28' E 025°19'0 0.0
2017-Sep-25 07:57N 37°28' E 025°19'0 0.0
2017-Sep-25 07:30N 37°28' E 025°19'0 0.0
2017-Sep-25 07:00N 37°28' E 025°19'0 0.0
2017-Sep-25 06:30N 37°28' E 025°19'0 0.0
2017-Sep-25 06:00N 37°28' E 025°19'0 0.0
2017-Sep-25 05:30N 37°28' E 025°19'0 0.0
2017-Sep-25 05:00N 37°28' E 025°19'0 0.0
2017-Sep-25 04:31N 37°28' E 025°19'1 2.5
2017-Sep-25 04:00N 37°27' E 025°18'714.5
2017-Sep-25 03:31N 37°26' E 025°09'816.1
2017-Sep-25 03:01N 37°21' E 025°01'816.2
2017-Sep-25 02:31N 37°14' E 024°57'611.1
2017-Sep-25 02:00N 37°08' E 024°55'  
2017-Sep-18 23:46N 44°04' E 014°05'519.0
2017-Sep-18 23:31N 44°08' E 014°01'918.6
2017-Sep-18 23:01N 44°15' E 013°54'918.3
2017-Sep-18 22:30N 44°23' E 013°46'917.3
2017-Sep-18 22:01N 44°30' E 013°40'612.6
2017-Sep-18 21:30N 44°36' E 013°35'612.3
2017-Sep-18 21:00N 44°41' E 013°30'612.2
2017-Sep-18 20:30N 44°46' E 013°26'612.2
2017-Sep-18 20:00N 44°51' E 013°21'713.8
2017-Sep-18 19:30N 44°57' E 013°16'917.1
2017-Sep-18 19:00N 45°04' E 013°10'917.6
2017-Sep-18 18:30N 45°12' E 013°03'917.2
2017-Sep-18 18:00N 45°19' E 012°57'816.8
2017-Sep-18 17:30N 45°22' E 012°46'917.5
2017-Sep-18 17:00N 45°22' E 012°33'713.9
2017-Sep-18 16:30N 45°26' E 012°25'3 6.0
2017-Sep-18 16:01N 45°26' E 012°21'2 3.1
2017-Sep-18 15:30N 45°26' E 012°18'0 0.0
2017-Sep-18 15:00N 45°26' E 012°18'0 0.0
2017-Sep-18 14:30N 45°26' E 012°18'0 0.0
2017-Sep-18 14:00N 45°26' E 012°18'0 0.0
2017-Sep-18 13:30N 45°26' E 012°18'0 0.0
2017-Sep-18 13:00N 45°26' E 012°18'0 0.0
2017-Sep-18 12:28N 45°26' E 012°18'0 0.0
2017-Sep-18 11:58N 45°26' E 012°18'0 0.0
2017-Sep-18 11:28N 45°26' E 012°18'0 0.0
2017-Sep-18 10:58N 45°26' E 012°18'0 0.0
2017-Sep-18 10:28N 45°26' E 012°18'0 0.0
2017-Sep-18 09:58N 45°26' E 012°18'0 0.0
2017-Sep-18 09:30N 45°26' E 012°18'0 0.0
2017-Sep-18 08:58N 45°26' E 012°18'0 0.0
2017-Sep-18 08:30N 45°26' E 012°18'0 0.0
2017-Sep-18 08:00N 45°26' E 012°18'0 0.0
2017-Sep-18 07:30N 45°26' E 012°18'0 0.0
2017-Sep-18 07:00N 45°26' E 012°18'0 0.0
2017-Sep-18 06:27N 45°26' E 012°18'0 0.0
2017-Sep-18 06:00N 45°26' E 012°18'0 0.0
2017-Sep-18 05:30N 45°26' E 012°18'0 0.8
2017-Sep-18 05:00N 45°26' E 012°19'2 4.9
2017-Sep-18 04:30N 45°25' E 012°22'3 7.0
2017-Sep-18 04:00N 45°25' E 012°27'611.2
2017-Sep-18 03:30N 45°22' E 012°33'913.2
2017-Sep-18 02:48N 45°18' E 012°46'413.2
2017-Sep-18 02:30N 45°17' E 012°51'1 1.6
2017-Sep-18 02:00N 45°17' E 012°52'0 0.4
2017-Sep-18 01:30N 45°17' E 012°52'0 0.5
2017-Sep-18 01:00N 45°17' E 012°52'1 1.0
2017-Sep-18 00:30N 45°18' E 012°51'1 1.2
2017-Sep-18 00:00N 45°18' E 012°51'1 1.3
2017-Sep-17 23:30N 45°19' E 012°50'1 1.4
2017-Sep-17 23:00N 45°19' E 012°49'1 1.5
2017-Sep-17 22:30N 45°20' E 012°49'1 1.7
2017-Sep-17 22:00N 45°20' E 012°48'2 3.0
2017-Sep-17 21:30N 45°22' E 012°49'510.1
2017-Sep-17 21:00N 45°25' E 012°55'510.0
2017-Sep-17 20:30N 45°27' E 013°01'4 8.2
2017-Sep-17 20:00N 45°29' E 013°06'510.5
2017-Sep-17 19:30N 45°32' E 013°13'610.9
2017-Sep-17 19:00N 45°34' E 013°20'510.9
2017-Sep-17 18:30N 45°36' E 013°27'510.9
2017-Sep-17 18:00N 45°38' E 013°34'510.5
2017-Sep-17 17:30N 45°35' E 013°41'3 5.1
2017-Sep-17 16:58N 45°33' E 013°44'0 0.0
2017-Sep-17 16:27N 45°33' E 013°44'0 0.0
2017-Sep-17 16:00N 45°33' E 013°44'0 0.0
2017-Sep-17 15:29N 45°33' E 013°44'0 0.0
2017-Sep-17 14:56N 45°33' E 013°44'0 0.0
2017-Sep-17 14:29N 45°33' E 013°44'0 0.0
2017-Sep-17 13:59N 45°33' E 013°44'0 0.0
2017-Sep-17 13:29N 45°33' E 013°44'0 0.0
2017-Sep-17 12:59N 45°33' E 013°44'0 0.0
2017-Sep-17 12:29N 45°33' E 013°44'0 0.0
2017-Sep-17 11:59N 45°33' E 013°44'0 0.0
2017-Sep-17 11:28N 45°33' E 013°44'0 0.0
2017-Sep-17 10:58N 45°33' E 013°44'0 0.0
2017-Sep-17 10:30N 45°33' E 013°44'0 0.0
2017-Sep-17 09:58N 45°33' E 013°44'0 0.0
2017-Sep-17 09:23N 45°33' E 013°44'0 0.0
2017-Sep-17 08:59N 45°33' E 013°44'0 0.0
2017-Sep-17 08:29N 45°33' E 013°44'0 0.0
2017-Sep-17 07:59N 45°33' E 013°44'0 0.0
2017-Sep-17 07:29N 45°33' E 013°44'0 0.0
2017-Sep-17 06:56N 45°33' E 013°44'0 0.0
2017-Sep-17 06:29N 45°33' E 013°44'0 0.0
2017-Sep-17 05:59N 45°33' E 013°44'0 0.9
2017-Sep-17 05:31N 45°33' E 013°43'1 2.4
2017-Sep-17 05:01N 45°34' E 013°42'613.0
2017-Sep-17 04:31N 45°35' E 013°32'816.0
2017-Sep-17 04:01N 45°30' E 013°23'816.6
2017-Sep-17 03:31N 45°25' E 013°13'816.6
2017-Sep-17 03:01N 45°17' E 013°14'917.6
2017-Sep-17 02:31N 45°09' E 013°16'816.0
2017-Sep-17 02:01N 45°01' E 013°21'611.7
2017-Sep-17 01:30N 44°56' E 013°24'612.3
2017-Sep-17 01:01N 44°51' E 013°29'612.1
2017-Sep-17 00:30N 44°46' E 013°34'611.9
2017-Sep-17 00:01N 44°41' E 013°38'611.8
2017-Sep-16 23:31N 44°36' E 013°43'611.8
2017-Sep-16 23:01N 44°31' E 013°47'611.8
2017-Sep-16 22:31N 44°26' E 013°52'611.7
2017-Sep-16 22:00N 44°21' E 013°56'611.3
2017-Sep-16 21:30N 44°16' E 014°00'9414.7
2017-Sep-16 15:08N 42°58' E 015°13'18216.2
2017-Sep-16 03:52N 41°18' E 018°37'1216.9
2017-Sep-16 03:08N 41°06' E 018°42'216.8
2017-Sep-16 03:00N 41°04' E 018°43'916.8
2017-Sep-16 02:27N 40°55' E 018°48'2716.8
2017-Sep-16 00:51N 40°29' E 018°57'1416.9
2017-Sep-16 00:02N 40°17' E 019°06'117.4
2017-Sep-16 00:00N 40°17' E 019°07'917.8
2017-Sep-15 23:29N 40°12' E 019°17'1518.3
2017-Sep-15 22:40N 40°04' E 019°33'  

Dump ship's entire track history